Time;durP1;ratioP1;P1;durP2;ratioP2;P2;SDS_P1;SDS_P2;PMS_P1;PMS_P2;Temp;Humidity;BMP_temperature;BMP_pressure;BME280_temperature;BME280_humidity;BME280_pressure;Samples;Min_cycle;Max_cycle;Signal;HPM_P1;HPM_P2
2022/06/18 00:00:50;;;;;;;1.17;0.90;;;;;;;;;;5049364;28;20458;-50
2022/06/18 00:03:17;;;;;;;2.45;1.23;;;;;;;;;;5061835;28;20017;-46
2022/06/18 00:05:44;;;;;;;2.55;0.90;;;;;;;;;;5038957;28;20390;-55
2022/06/18 00:08:19;;;;;;;1.45;0.80;;;;;;;;;;5051552;28;20028;-53
2022/06/18 00:10:45;;;;;;;1.70;0.80;;;;;;;;;;5058378;28;20381;-56
2022/06/18 00:15:59;;;;;;;1.80;0.82;;;;;;;;;;5046473;28;20552;-50
2022/06/18 00:18:25;;;;;;;1.42;1.05;;;;;;;;;;5049100;28;20758;-51
2022/06/18 00:20:51;;;;;;;1.48;0.93;;;;;;;;;;5050211;28;20029;-51
2022/06/18 00:23:17;;;;;;;1.20;0.90;;;;;;;;;;5050068;28;20027;-49
2022/06/18 00:25:45;;;;;;;2.10;0.98;;;;;;;;;;5050086;28;20020;-51
2022/06/18 00:28:19;;;;;;;1.05;0.90;;;;;;;;;;5049548;28;20035;-49
2022/06/18 00:30:45;;;;;;;1.00;0.82;;;;;;;;;;5050243;28;20481;-56
2022/06/18 00:33:12;;;;;;;1.33;1.00;;;;;;;;;;5048520;28;20044;-51
2022/06/18 00:35:38;;;;;;;2.33;0.90;;;;;;;;;;5050101;28;20033;-52
2022/06/18 00:38:06;;;;;;;1.55;0.90;;;;;;;;;;5049225;28;20108;-51
2022/06/18 00:40:36;;;;;;;1.77;1.48;;;;;;;;;;5050245;28;20029;-51
2022/06/18 00:43:05;;;;;;;1.67;0.88;;;;;;;;;;5049600;28;20033;-48
2022/06/18 00:45:31;;;;;;;1.58;1.00;;;;;;;;;;5049773;28;20524;-52
2022/06/18 00:47:58;;;;;;;2.28;0.98;;;;;;;;;;5049462;28;20390;-52
2022/06/18 00:50:27;;;;;;;1.92;1.02;;;;;;;;;;5048336;28;20033;-52
2022/06/18 00:53:03;;;;;;;1.23;0.90;;;;;;;;;;5046796;28;20103;-52
2022/06/18 00:55:32;;;;;;;1.40;0.82;;;;;;;;;;5049433;28;20056;-53
2022/06/18 00:58:01;;;;;;;1.40;1.13;;;;;;;;;;5049551;28;20018;-53
2022/06/18 01:00:32;;;;;;;2.63;1.08;;;;;;;;;;5050597;28;20021;-50
2022/06/18 01:02:59;;;;;;;1.13;0.97;;;;;;;;;;5053530;28;20025;-49
2022/06/18 01:05:26;;;;;;;1.23;0.80;;;;;;;;;;5051760;28;20492;-52
2022/06/18 01:07:58;;;;;;;1.55;0.80;;;;;;;;;;5054924;28;20021;-50
2022/06/18 01:10:35;;;;;;;2.15;1.00;;;;;;;;;;5065320;28;20028;-51
2022/06/18 01:13:03;;;;;;;2.97;0.90;;;;;;;;;;5074248;28;20350;-51
2022/06/18 01:15:30;;;;;;;1.83;0.93;;;;;;;;;;5053721;28;20036;-53
2022/06/18 01:17:56;;;;;;;1.20;0.93;;;;;;;;;;5053366;28;20027;-52
2022/06/18 01:20:23;;;;;;;1.40;0.82;;;;;;;;;;5054386;28;20078;-52
2022/06/18 01:22:59;;;;;;;2.30;0.95;;;;;;;;;;5051162;28;20061;-60
2022/06/18 01:25:26;;;;;;;1.60;1.08;;;;;;;;;;5051090;28;20029;-52
2022/06/18 01:27:57;;;;;;;1.50;1.10;;;;;;;;;;5053226;28;20088;-49
2022/06/18 01:30:25;;;;;;;1.30;0.90;;;;;;;;;;5053452;28;20029;-54
2022/06/18 01:32:53;;;;;;;3.08;1.35;;;;;;;;;;5052756;28;20024;-51
2022/06/18 01:35:20;;;;;;;2.50;0.95;;;;;;;;;;5054040;28;20032;-51
2022/06/18 01:37:46;;;;;;;1.73;1.38;;;;;;;;;;5047661;28;20031;-59
2022/06/18 01:40:15;;;;;;;1.40;1.13;;;;;;;;;;5053152;28;20108;-51
2022/06/18 01:42:42;;;;;;;1.27;1.08;;;;;;;;;;5055255;28;20116;-54
2022/06/18 01:45:09;;;;;;;1.10;0.82;;;;;;;;;;5052696;28;20075;-53
2022/06/18 01:47:45;;;;;;;1.38;1.20;;;;;;;;;;5053672;28;20057;-52
2022/06/18 01:50:14;;;;;;;1.10;1.00;;;;;;;;;;5052264;28;20083;-53
2022/06/18 01:52:44;;;;;;;1.23;0.95;;;;;;;;;;5053098;28;20891;-54
2022/06/18 01:55:13;;;;;;;2.47;1.30;;;;;;;;;;5049207;28;20029;-53
2022/06/18 01:57:42;;;;;;;1.20;0.90;;;;;;;;;;5052387;28;20029;-52
2022/06/18 02:00:12;;;;;;;1.75;1.20;;;;;;;;;;5049566;28;20630;-51
2022/06/18 02:02:38;;;;;;;1.35;1.08;;;;;;;;;;5052800;28;20040;-55
2022/06/18 02:05:04;;;;;;;2.25;1.23;;;;;;;;;;5052313;28;20119;-52
2022/06/18 02:07:30;;;;;;;1.77;1.02;;;;;;;;;;5051890;28;20032;-54
2022/06/18 02:09:56;;;;;;;1.30;0.98;;;;;;;;;;5051840;28;20025;-53
2022/06/18 02:12:23;;;;;;;1.50;1.10;;;;;;;;;;5054206;28;20424;-52
2022/06/18 02:14:54;;;;;;;1.08;1.00;;;;;;;;;;5052530;28;20032;-61
2022/06/18 02:17:21;;;;;;;1.48;1.20;;;;;;;;;;5052479;28;20033;-52
2022/06/18 02:19:49;;;;;;;1.38;1.27;;;;;;;;;;5053161;28;20025;-60
2022/06/18 02:22:16;;;;;;;1.38;1.00;;;;;;;;;;5052861;28;20063;-54
2022/06/18 02:24:42;;;;;;;2.88;1.13;;;;;;;;;;5052522;28;20498;-49
2022/06/18 02:27:10;;;;;;;1.30;1.00;;;;;;;;;;5051081;28;20017;-49
2022/06/18 02:29:37;;;;;;;2.03;1.10;;;;;;;;;;5053811;28;20029;-51
2022/06/18 02:32:05;;;;;;;1.42;1.20;;;;;;;;;;5052402;28;20571;-53
2022/06/18 02:34:31;;;;;;;1.55;1.00;;;;;;;;;;5053359;28;20466;-52
2022/06/18 02:37:00;;;;;;;1.20;1.10;;;;;;;;;;5053125;28;20103;-50
2022/06/18 02:39:33;;;;;;;1.08;0.95;;;;;;;;;;5053606;28;20474;-50
2022/06/18 02:42:04;;;;;;;1.15;1.05;;;;;;;;;;5052691;28;20028;-52
2022/06/18 02:44:31;;;;;;;2.10;1.10;;;;;;;;;;5034926;28;20030;-54
2022/06/18 02:46:59;;;;;;;1.10;1.00;;;;;;;;;;5037431;28;20029;-52
2022/06/18 02:49:25;;;;;;;3.58;1.75;;;;;;;;;;5053482;28;20106;-51
2022/06/18 02:51:51;;;;;;;3.13;1.08;;;;;;;;;;5053086;28;20040;-55
2022/06/18 02:54:19;;;;;;;1.60;1.10;;;;;;;;;;5053651;28;20382;-51
2022/06/18 02:56:45;;;;;;;1.38;1.27;;;;;;;;;;5053476;28;20031;-52
2022/06/18 02:59:11;;;;;;;1.10;1.00;;;;;;;;;;5052427;28;20036;-52
2022/06/18 03:01:37;;;;;;;1.80;1.20;;;;;;;;;;5054098;28;20428;-50
2022/06/18 03:04:03;;;;;;;1.38;1.13;;;;;;;;;;5072379;28;20427;-52
2022/06/18 03:06:31;;;;;;;1.95;1.10;;;;;;;;;;5073662;28;20024;-50
2022/06/18 03:08:57;;;;;;;2.45;1.15;;;;;;;;;;5072462;28;20021;-49
2022/06/18 03:14:09;;;;;;;1.65;1.15;;;;;;;;;;5062293;28;20248;-49
2022/06/18 03:16:36;;;;;;;2.28;1.10;;;;;;;;;;5053153;28;20107;-49
2022/06/18 03:19:02;;;;;;;1.60;1.10;;;;;;;;;;5037242;28;20032;-50
2022/06/18 03:21:31;;;;;;;1.25;1.00;;;;;;;;;;5033060;28;20536;-51
2022/06/18 03:23:58;;;;;;;1.13;1.02;;;;;;;;;;5031791;28;20036;-51
2022/06/18 03:26:24;;;;;;;1.20;0.95;;;;;;;;;;5033328;28;20048;-52
2022/06/18 03:28:50;;;;;;;1.55;1.25;;;;;;;;;;5032085;28;20029;-59
2022/06/18 03:31:16;;;;;;;1.60;1.30;;;;;;;;;;5038609;28;20024;-50
2022/06/18 03:33:42;;;;;;;1.27;1.00;;;;;;;;;;5051677;28;20533;-52
2022/06/18 03:36:10;;;;;;;1.80;1.10;;;;;;;;;;5051662;28;20166;-53
2022/06/18 03:38:36;;;;;;;1.50;1.02;;;;;;;;;;5072624;28;20039;-53
2022/06/18 03:41:02;;;;;;;3.17;1.33;;;;;;;;;;5071940;28;20028;-53
2022/06/18 03:43:28;;;;;;;1.55;1.30;;;;;;;;;;5072365;28;20024;-53
2022/06/18 03:45:57;;;;;;;1.20;1.00;;;;;;;;;;5071610;28;20057;-53
2022/06/18 03:48:23;;;;;;;6.88;1.30;;;;;;;;;;5071042;28;20491;-53
2022/06/18 03:50:49;;;;;;;1.30;1.10;;;;;;;;;;5056471;28;20075;-58
2022/06/18 03:53:15;;;;;;;1.45;0.85;;;;;;;;;;5050032;28;20064;-53
2022/06/18 03:55:42;;;;;;;1.70;1.20;;;;;;;;;;5052416;28;20017;-50
2022/06/18 03:58:07;;;;;;;2.15;1.33;;;;;;;;;;5051454;28;20033;-53
2022/06/18 04:00:34;;;;;;;2.38;1.10;;;;;;;;;;5051322;28;20141;-54
2022/06/18 04:03:00;;;;;;;1.50;1.40;;;;;;;;;;5051573;28;20083;-53
2022/06/18 04:05:27;;;;;;;1.35;1.20;;;;;;;;;;5052228;28;20114;-53
2022/06/18 04:07:53;;;;;;;1.63;1.10;;;;;;;;;;5051509;28;20028;-60
2022/06/18 04:10:21;;;;;;;1.20;1.10;;;;;;;;;;5055752;28;20051;-53
2022/06/18 04:12:47;;;;;;;1.10;0.93;;;;;;;;;;5071996;28;20020;-52
2022/06/18 04:15:15;;;;;;;1.88;1.02;;;;;;;;;;5060952;28;20017;-54
2022/06/18 04:17:41;;;;;;;1.08;0.98;;;;;;;;;;5052003;28;20459;-54
2022/06/18 04:20:08;;;;;;;2.78;1.38;;;;;;;;;;5049919;28;20485;-53
2022/06/18 04:22:33;;;;;;;2.85;1.13;;;;;;;;;;5051855;28;20048;-52
2022/06/18 04:24:59;;;;;;;1.00;0.90;;;;;;;;;;5051253;28;20070;-53
2022/06/18 04:27:26;;;;;;;2.83;1.20;;;;;;;;;;5049742;28;20764;-54
2022/06/18 04:29:52;;;;;;;1.30;0.95;;;;;;;;;;5051307;28;20021;-60
2022/06/18 04:32:18;;;;;;;1.10;1.00;;;;;;;;;;5051461;28;20029;-53
2022/06/18 04:34:44;;;;;;;2.13;1.20;;;;;;;;;;5051806;28;20466;-53
2022/06/18 04:37:10;;;;;;;1.27;1.10;;;;;;;;;;5051429;28;20028;-53
2022/06/18 04:39:36;;;;;;;1.23;1.10;;;;;;;;;;5051501;28;20104;-49
2022/06/18 04:42:02;;;;;;;2.50;1.20;;;;;;;;;;5051220;28;20024;-50
2022/06/18 04:44:28;;;;;;;2.95;1.10;;;;;;;;;;5054226;28;20485;-50
2022/06/18 04:46:54;;;;;;;3.30;1.80;;;;;;;;;;5051146;28;20033;-60
2022/06/18 04:49:20;;;;;;;1.30;1.20;;;;;;;;;;5051226;28;20021;-53
2022/06/18 04:51:47;;;;;;;1.80;1.30;;;;;;;;;;5051727;28;20489;-52
2022/06/18 04:54:13;;;;;;;2.60;1.20;;;;;;;;;;5050939;28;20649;-49
2022/06/18 04:56:39;;;;;;;1.20;1.10;;;;;;;;;;5051075;28;20021;-50
2022/06/18 04:59:05;;;;;;;2.10;1.33;;;;;;;;;;5050777;28;20036;-50
2022/06/18 05:01:31;;;;;;;2.20;1.30;;;;;;;;;;5050806;28;20053;-53
2022/06/18 05:03:57;;;;;;;1.42;1.13;;;;;;;;;;5071037;28;20099;-50
2022/06/18 05:06:23;;;;;;;3.33;1.33;;;;;;;;;;5071276;28;20111;-52
2022/06/18 05:08:49;;;;;;;2.00;1.38;;;;;;;;;;5071744;28;20105;-48
2022/06/18 05:11:15;;;;;;;1.73;1.30;;;;;;;;;;5053679;28;20100;-48
2022/06/18 05:13:41;;;;;;;1.75;1.10;;;;;;;;;;5058516;28;20104;-50
2022/06/18 05:16:08;;;;;;;1.20;1.10;;;;;;;;;;5050198;28;20461;-48
2022/06/18 05:18:35;;;;;;;1.30;1.20;;;;;;;;;;5045830;28;20037;-48
2022/06/18 05:21:01;;;;;;;1.67;1.02;;;;;;;;;;5030818;28;20026;-49
2022/06/18 05:23:27;;;;;;;1.85;1.30;;;;;;;;;;5031697;28;20032;-53
2022/06/18 05:25:58;;;;;;;2.28;1.38;;;;;;;;;;5031281;28;20050;-57
2022/06/18 05:28:25;;;;;;;1.83;1.30;;;;;;;;;;5031534;28;20474;-48
2022/06/18 05:30:51;;;;;;;1.95;1.13;;;;;;;;;;5033395;28;20485;-53
2022/06/18 05:33:17;;;;;;;2.55;1.20;;;;;;;;;;5050723;28;20032;-49
2022/06/18 05:35:43;;;;;;;2.33;1.20;;;;;;;;;;5048823;28;20528;-50
2022/06/18 05:38:19;;;;;;;2.60;1.33;;;;;;;;;;5050711;28;20033;-51
2022/06/18 05:40:46;;;;;;;1.30;1.10;;;;;;;;;;5051269;28;20103;-49
2022/06/18 05:43:12;;;;;;;2.00;1.35;;;;;;;;;;5059434;28;20101;-52
2022/06/18 05:45:38;;;;;;;1.30;1.20;;;;;;;;;;5070968;28;20048;-50
2022/06/18 05:48:05;;;;;;;1.48;1.30;;;;;;;;;;5072098;28;20112;-51
2022/06/18 05:50:31;;;;;;;2.72;1.35;;;;;;;;;;5066932;28;20039;-53
2022/06/18 05:52:57;;;;;;;1.80;1.35;;;;;;;;;;5063169;28;20043;-58
2022/06/18 05:55:23;;;;;;;2.03;1.40;;;;;;;;;;5071430;28;20033;-53
2022/06/18 05:57:51;;;;;;;1.30;1.20;;;;;;;;;;5054766;28;20025;-52
2022/06/18 06:00:18;;;;;;;2.15;1.08;;;;;;;;;;5053567;28;20028;-52
2022/06/18 06:02:44;;;;;;;1.23;1.13;;;;;;;;;;5053981;28;20032;-53
2022/06/18 06:05:10;;;;;;;1.48;1.10;;;;;;;;;;5053766;28;20017;-55
2022/06/18 06:07:36;;;;;;;1.48;1.15;;;;;;;;;;5045989;28;20553;-49
2022/06/18 06:12:48;;;;;;;2.05;1.20;;;;;;;;;;5074155;28;20078;-51
2022/06/18 06:15:14;;;;;;;2.60;1.42;;;;;;;;;;5053710;28;20025;-53
2022/06/18 06:17:40;;;;;;;2.08;1.10;;;;;;;;;;5054191;28;20029;-54
2022/06/18 06:20:08;;;;;;;1.42;1.20;;;;;;;;;;5053424;28;20029;-56
2022/06/18 06:22:35;;;;;;;4.03;1.30;;;;;;;;;;5050712;28;20039;-58
2022/06/18 06:25:01;;;;;;;1.73;1.25;;;;;;;;;;5035359;28;20030;-59
2022/06/18 06:27:27;;;;;;;1.83;1.05;;;;;;;;;;5050104;28;20029;-50
2022/06/18 06:29:53;;;;;;;1.75;1.60;;;;;;;;;;5054323;28;20025;-56
2022/06/18 06:32:19;;;;;;;3.88;1.50;;;;;;;;;;5052815;28;20550;-51
2022/06/18 06:34:45;;;;;;;1.77;1.25;;;;;;;;;;5054145;28;20036;-54
2022/06/18 06:37:11;;;;;;;3.15;1.33;;;;;;;;;;5052997;28;20025;-56
2022/06/18 06:39:37;;;;;;;4.07;1.00;;;;;;;;;;5044578;28;20025;-54
2022/06/18 06:42:04;;;;;;;1.58;1.20;;;;;;;;;;5033151;28;20029;-55
2022/06/18 06:44:30;;;;;;;2.85;1.20;;;;;;;;;;5072862;28;20103;-55
2022/06/18 06:46:58;;;;;;;3.28;1.38;;;;;;;;;;5073871;28;20504;-56
2022/06/18 06:49:24;;;;;;;10.20;1.70;;;;;;;;;;5062391;28;20036;-50
2022/06/18 06:51:50;;;;;;;8.32;2.03;;;;;;;;;;5052196;28;20025;-55
2022/06/18 06:54:17;;;;;;;5.55;1.83;;;;;;;;;;5052865;28;20017;-54
2022/06/18 06:59:27;;;;;;;5.38;2.33;;;;;;;;;;5051356;28;20044;-53
2022/06/18 07:01:53;;;;;;;5.80;2.55;;;;;;;;;;5053188;28;20029;-53
2022/06/18 07:04:20;;;;;;;7.70;2.40;;;;;;;;;;5052337;28;20027;-57
2022/06/18 07:06:46;;;;;;;7.30;3.13;;;;;;;;;;5052958;28;20032;-58
2022/06/18 07:09:12;;;;;;;5.45;2.25;;;;;;;;;;5051261;28;20017;-55
2022/06/18 07:11:38;;;;;;;4.22;2.13;;;;;;;;;;5072619;28;20481;-58
2022/06/18 07:14:04;;;;;;;3.80;2.22;;;;;;;;;;5063507;28;20033;-58
2022/06/18 07:16:30;;;;;;;2.83;2.20;;;;;;;;;;5052853;28;20060;-52
2022/06/18 07:18:57;;;;;;;3.30;1.70;;;;;;;;;;5072819;28;20115;-56
2022/06/18 07:21:23;;;;;;;4.78;2.17;;;;;;;;;;5071919;28;20482;-53
2022/06/18 07:23:49;;;;;;;4.38;1.80;;;;;;;;;;5072906;28;20028;-53
2022/06/18 07:26:17;;;;;;;7.13;2.00;;;;;;;;;;5071818;28;20029;-51
2022/06/18 07:28:43;;;;;;;5.85;2.13;;;;;;;;;;5071420;28;20090;-50
2022/06/18 07:31:18;;;;;;;4.82;1.75;;;;;;;;;;5052428;28;20370;-53
2022/06/18 07:33:46;;;;;;;2.45;1.60;;;;;;;;;;5052221;28;20037;-50
2022/06/18 07:36:12;;;;;;;4.72;1.85;;;;;;;;;;5051722;28;20470;-53
2022/06/18 07:38:38;;;;;;;28.35;2.85;;;;;;;;;;5052248;28;20032;-52
2022/06/18 07:41:04;;;;;;;3.13;1.88;;;;;;;;;;5051116;28;20474;-55
2022/06/18 07:43:34;;;;;;;4.65;1.80;;;;;;;;;;5063358;28;20032;-56
2022/06/18 07:46:01;;;;;;;2.90;1.70;;;;;;;;;;5057677;28;20056;-56
2022/06/18 07:48:27;;;;;;;3.03;1.50;;;;;;;;;;5050738;28;20094;-52
2022/06/18 07:50:53;;;;;;;35.65;3.55;;;;;;;;;;5051712;28;20033;-48
2022/06/18 07:53:22;;;;;;;4.90;1.67;;;;;;;;;;5051266;28;20037;-56
2022/06/18 07:55:48;;;;;;;5.50;1.90;;;;;;;;;;5039109;28;20025;-56
2022/06/18 07:58:15;;;;;;;4.50;1.45;;;;;;;;;;5049665;28;20359;-55
2022/06/18 08:00:42;;;;;;;5.05;1.92;;;;;;;;;;5051485;28;20060;-54
2022/06/18 08:03:09;;;;;;;2.85;1.85;;;;;;;;;;5051067;28;20017;-51
2022/06/18 08:05:35;;;;;;;5.00;1.88;;;;;;;;;;5051675;28;20033;-49
2022/06/18 08:08:01;;;;;;;4.63;1.83;;;;;;;;;;5051929;28;20093;-67
2022/06/18 08:10:28;;;;;;;7.32;1.80;;;;;;;;;;5051403;28;20028;-55
2022/06/18 08:12:54;;;;;;;2.65;1.70;;;;;;;;;;5042405;28;20399;-56
2022/06/18 08:15:20;;;;;;;6.18;1.52;;;;;;;;;;5060628;28;20020;-54
2022/06/18 08:17:46;;;;;;;7.07;1.63;;;;;;;;;;5052860;28;20036;-57
2022/06/18 08:20:13;;;;;;;3.88;1.98;;;;;;;;;;5068985;28;20038;-58
2022/06/18 08:22:41;;;;;;;5.55;1.90;;;;;;;;;;5070502;28;20044;-55
2022/06/18 08:25:08;;;;;;;3.42;1.70;;;;;;;;;;5053251;28;20052;-53
2022/06/18 08:27:34;;;;;;;3.53;1.90;;;;;;;;;;5048433;28;20033;-57
2022/06/18 08:30:00;;;;;;;4.03;1.63;;;;;;;;;;5060354;28;20029;-53
2022/06/18 08:32:26;;;;;;;5.25;1.77;;;;;;;;;;5033305;28;20034;-45
2022/06/18 08:34:52;;;;;;;3.42;1.58;;;;;;;;;;5061278;28;20487;-47
2022/06/18 08:37:19;;;;;;;4.38;1.73;;;;;;;;;;5029554;28;20126;-54
2022/06/18 08:39:45;;;;;;;3.35;1.45;;;;;;;;;;5030598;28;20356;-53
2022/06/18 08:42:19;;;;;;;3.80;1.63;;;;;;;;;;5030450;28;20083;-50
2022/06/18 08:44:48;;;;;;;7.22;1.83;;;;;;;;;;5063324;28;20060;-52
2022/06/18 08:47:34;;;;;;;3.67;1.50;;;;;;;;;;5052630;28;20382;-52
2022/06/18 08:50:20;;;;;;;2.63;1.60;;;;;;;;;;5056330;28;20040;-52
2022/06/18 08:52:49;;;;;;;3.55;1.40;;;;;;;;;;5047900;28;20025;-51
2022/06/18 08:55:18;;;;;;;4.45;1.55;;;;;;;;;;5035042;28;20025;-60
2022/06/18 08:57:44;;;;;;;5.40;1.70;;;;;;;;;;5050382;28;20032;-52
2022/06/18 09:00:27;;;;;;;1.55;1.25;;;;;;;;;;5048684;28;20036;-54
2022/06/18 09:03:00;;;;;;;5.78;1.88;;;;;;;;;;5058650;28;20111;-57
2022/06/18 09:05:38;;;;;;;3.50;1.50;;;;;;;;;;5049087;28;20547;-54
2022/06/18 09:08:23;;;;;;;2.20;1.60;;;;;;;;;;5042137;28;20352;-60
2022/06/18 09:10:49;;;;;;;5.10;1.08;;;;;;;;;;5063429;28;20426;-48
2022/06/18 09:13:41;;;;;;;3.58;1.38;;;;;;;;;;5060259;28;20025;-60
2022/06/18 09:16:10;;;;;;;3.45;1.60;;;;;;;;;;5047868;28;20475;-59
2022/06/18 09:18:53;;;;;;;4.50;1.60;;;;;;;;;;5047766;28;20082;-58
2022/06/18 09:21:22;;;;;;;3.88;1.63;;;;;;;;;;5068872;28;20514;-60
2022/06/18 09:24:09;;;;;;;2.50;1.50;;;;;;;;;;5054218;28;20074;-49
2022/06/18 09:26:42;;;;;;;3.90;1.48;;;;;;;;;;5059829;28;20032;-59
2022/06/18 09:29:08;;;;;;;5.30;1.30;;;;;;;;;;5062477;28;20462;-52
2022/06/18 09:31:47;;;;;;;2.58;1.48;;;;;;;;;;5062196;28;20032;-58
2022/06/18 09:34:22;;;;;;;3.35;1.50;;;;;;;;;;5057919;28;20025;-57
2022/06/18 09:36:51;;;;;;;3.78;1.73;;;;;;;;;;5046759;28;20077;-47
2022/06/18 09:39:17;;;;;;;2.53;1.67;;;;;;;;;;5061403;28;20025;-51
2022/06/18 09:41:56;;;;;;;5.30;1.63;;;;;;;;;;5053821;28;20776;-55
2022/06/18 09:44:37;;;;;;;3.88;1.50;;;;;;;;;;5052059;28;20021;-59
2022/06/18 09:47:06;;;;;;;5.55;1.50;;;;;;;;;;5052499;28;20024;-56
2022/06/18 09:49:32;;;;;;;2.90;1.80;;;;;;;;;;5054540;28;20501;-47
2022/06/18 09:52:12;;;;;;;5.38;1.90;;;;;;;;;;5051371;28;20029;-50
2022/06/18 09:54:50;;;;;;;5.13;1.48;;;;;;;;;;5058300;28;20077;-53
2022/06/18 09:57:18;;;;;;;3.42;1.30;;;;;;;;;;5072356;28;20269;-52
2022/06/18 09:59:48;;;;;;;2.67;1.70;;;;;;;;;;5061477;28;20079;-49
2022/06/18 10:02:34;;;;;;;2.63;1.45;;;;;;;;;;5053740;28;20029;-55
2022/06/18 10:07:48;;;;;;;9.38;2.47;;;;;;;;;;5035027;28;20087;-49
2022/06/18 10:10:19;;;;;;;2.97;1.58;;;;;;;;;;5051189;28;20085;-52
2022/06/18 10:12:48;;;;;;;2.83;1.27;;;;;;;;;;5074056;28;20033;-50
2022/06/18 10:15:14;;;;;;;2.88;1.30;;;;;;;;;;5054277;28;20052;-50
2022/06/18 10:17:51;;;;;;;5.95;1.30;;;;;;;;;;5054085;28;20386;-52
2022/06/18 10:20:23;;;;;;;4.53;1.45;;;;;;;;;;5051741;28;20065;-49
2022/06/18 10:22:56;;;;;;;5.13;1.30;;;;;;;;;;5054187;28;20017;-49
2022/06/18 10:25:41;;;;;;;3.88;1.40;;;;;;;;;;5053553;28;20206;-49
2022/06/18 10:28:15;;;;;;;4.60;1.45;;;;;;;;;;5053551;28;20122;-52
2022/06/18 10:31:00;;;;;;;3.55;1.20;;;;;;;;;;5052739;28;20025;-49
2022/06/18 10:33:29;;;;;;;1.38;1.02;;;;;;;;;;5053125;28;20036;-52
2022/06/18 10:36:15;;;;;;;1.70;1.27;;;;;;;;;;5041351;28;20021;-50
2022/06/18 10:38:44;;;;;;;2.78;1.33;;;;;;;;;;5053682;28;20036;-49
2022/06/18 10:41:16;;;;;;;4.10;1.00;;;;;;;;;;5053145;28;20028;-51
2022/06/18 10:43:42;;;;;;;3.15;1.40;;;;;;;;;;5053772;28;20032;-51
2022/06/18 10:46:14;;;;;;;2.33;1.25;;;;;;;;;;5052759;28;20057;-51
2022/06/18 10:48:44;;;;;;;3.55;1.25;;;;;;;;;;5053806;28;20056;-50
2022/06/18 10:51:15;;;;;;;3.42;1.25;;;;;;;;;;5050815;28;20470;-51
2022/06/18 10:53:47;;;;;;;2.42;1.13;;;;;;;;;;5053856;28;20032;-50
2022/06/18 10:56:18;;;;;;;1.60;1.30;;;;;;;;;;5052744;28;20050;-52
2022/06/18 10:59:03;;;;;;;3.27;1.60;;;;;;;;;;5055733;28;20032;-51
2022/06/18 11:01:39;;;;;;;1.50;0.93;;;;;;;;;;5053604;28;20033;-51
2022/06/18 11:04:22;;;;;;;1.85;1.05;;;;;;;;;;5053062;28;20382;-59
2022/06/18 11:06:49;;;;;;;2.00;1.30;;;;;;;;;;5053450;28;20020;-50
2022/06/18 11:09:44;;;;;;;2.53;1.52;;;;;;;;;;5035833;28;20076;-52
2022/06/18 11:12:23;;;;;;;4.10;1.77;;;;;;;;;;5032675;28;20041;-49
2022/06/18 11:14:49;;;;;;;2.92;1.10;;;;;;;;;;5048025;28;20040;-53
2022/06/18 11:17:23;;;;;;;10.73;2.20;;;;;;;;;;5052475;28;20045;-49
2022/06/18 11:19:49;;;;;;;4.75;1.23;;;;;;;;;;5053218;28;20520;-48
2022/06/18 11:22:15;;;;;;;1.63;1.10;;;;;;;;;;5052794;28;20037;-48
2022/06/18 11:24:42;;;;;;;1.58;1.13;;;;;;;;;;5051432;28;20367;-49
2022/06/18 11:27:17;;;;;;;1.60;1.10;;;;;;;;;;5052294;28;20025;-51
2022/06/18 11:29:47;;;;;;;2.17;1.23;;;;;;;;;;5063919;28;20036;-50
2022/06/18 11:32:18;;;;;;;2.40;1.27;;;;;;;;;;5071744;28;20033;-49
2022/06/18 11:34:46;;;;;;;1.95;1.20;;;;;;;;;;5072836;28;20033;-52
2022/06/18 11:37:23;;;;;;;1.92;1.45;;;;;;;;;;5060620;28;20528;-51
2022/06/18 11:39:53;;;;;;;1.65;1.13;;;;;;;;;;5052497;28;20029;-49
2022/06/18 11:42:31;;;;;;;1.70;1.45;;;;;;;;;;5050096;28;20025;-49
2022/06/18 11:45:03;;;;;;;1.20;0.95;;;;;;;;;;5052158;28;20089;-50
2022/06/18 11:47:33;;;;;;;1.20;1.10;;;;;;;;;;5051589;28;20375;-56
2022/06/18 11:50:12;;;;;;;2.45;1.10;;;;;;;;;;5051800;28;20107;-46
2022/06/18 11:52:42;;;;;;;2.13;1.02;;;;;;;;;;5052084;28;20352;-50
2022/06/18 11:55:17;;;;;;;5.20;1.75;;;;;;;;;;5051546;28;20075;-61
2022/06/18 11:57:47;;;;;;;3.47;2.28;;;;;;;;;;5052387;28;20049;-57
2022/06/18 12:00:22;;;;;;;5.05;1.52;;;;;;;;;;5054715;28;20398;-43
2022/06/18 12:03:02;;;;;;;6.22;1.20;;;;;;;;;;5051926;28;20064;-46
2022/06/18 12:06:03;;;;;;;3.83;1.45;;;;;;;;;;5089102;28;20312;-52
2022/06/18 12:08:29;;;;;;;3.00;1.35;;;;;;;;;;5089546;28;20082;-48
2022/06/18 12:10:59;;;;;;;7.50;1.50;;;;;;;;;;5103557;28;20046;-45
2022/06/18 12:13:40;;;;;;;4.50;1.00;;;;;;;;;;5097972;28;20574;-47
2022/06/18 12:16:06;;;;;;;2.53;1.58;;;;;;;;;;5082849;28;20111;-55
2022/06/18 12:18:35;;;;;;;4.20;1.30;;;;;;;;;;5089166;28;20057;-51
2022/06/18 12:21:08;;;;;;;11.15;2.65;;;;;;;;;;5087581;28;20024;-48
2022/06/18 12:23:50;;;;;;;9.88;2.70;;;;;;;;;;5089567;28;20469;-48
2022/06/18 12:26:31;;;;;;;14.43;3.95;;;;;;;;;;5106859;28;20099;-49
2022/06/18 12:29:23;;;;;;;37.72;7.60;;;;;;;;;;5108181;28;20116;-50
2022/06/18 12:31:53;;;;;;;58.97;10.63;;;;;;;;;;5090394;28;20064;-47
2022/06/18 12:34:25;;;;;;;51.55;10.50;;;;;;;;;;5081916;28;20032;-47
2022/06/18 12:36:57;;;;;;;64.07;15.05;;;;;;;;;;5087501;28;20107;-45
2022/06/18 12:39:26;;;;;;;79.22;17.55;;;;;;;;;;5089552;28;20071;-45
2022/06/18 12:41:55;;;;;;;73.82;17.00;;;;;;;;;;5066450;28;20353;-50
2022/06/18 12:44:24;;;;;;;67.03;16.90;;;;;;;;;;5066219;28;20036;-53
2022/06/18 12:46:56;;;;;;;58.92;15.32;;;;;;;;;;5067003;28;20056;-56
2022/06/18 12:49:29;;;;;;;73.03;18.02;;;;;;;;;;5088424;28;20177;-50
2022/06/18 12:52:05;;;;;;;54.05;15.18;;;;;;;;;;5089135;28;20055;-52
2022/06/18 12:54:31;;;;;;;62.58;17.48;;;;;;;;;;5088169;28;20031;-49
2022/06/18 12:57:00;;;;;;;50.35;13.75;;;;;;;;;;5086394;28;20021;-51
2022/06/18 12:59:38;;;;;;;52.17;13.32;;;;;;;;;;5094851;28;20182;-52
2022/06/18 13:02:13;;;;;;;59.67;14.68;;;;;;;;;;5086485;28;20028;-55
2022/06/18 13:05:00;;;;;;;46.33;12.25;;;;;;;;;;5086131;28;20087;-53
2022/06/18 13:07:46;;;;;;;53.22;12.70;;;;;;;;;;5095951;28;20153;-50
2022/06/18 13:10:31;;;;;;;53.58;13.52;;;;;;;;;;5071518;28;20511;-52
2022/06/18 13:13:05;;;;;;;42.30;10.98;;;;;;;;;;5086682;28;20032;-47
2022/06/18 13:15:37;;;;;;;45.30;11.95;;;;;;;;;;5078146;28;20036;-58
2022/06/18 13:18:07;;;;;;;41.58;12.73;;;;;;;;;;5073163;28;20020;-57
2022/06/18 13:20:36;;;;;;;30.60;9.13;;;;;;;;;;5074347;28;20081;-48
2022/06/18 13:28:10;;;;;;;29.85;8.15;;;;;;;;;;5081175;28;20032;-60
2022/06/18 13:28:37;;;;;;;34.33;9.85;;;;;;;;;;5092762;28;20381;-60
2022/06/18 13:31:03;;;;;;;35.90;9.05;;;;;;;;;;5086024;28;20020;-63
2022/06/18 13:33:29;;;;;;;31.50;9.15;;;;;;;;;;5071423;28;20035;-50
2022/06/18 13:36:01;;;;;;;35.00;9.38;;;;;;;;;;5073258;28;20029;-56
2022/06/18 13:38:30;;;;;;;34.85;9.27;;;;;;;;;;5073323;28;20510;-59
2022/06/18 13:41:15;;;;;;;28.17;8.68;;;;;;;;;;5081142;28;20044;-51
2022/06/18 13:43:47;;;;;;;28.67;7.18;;;;;;;;;;5073065;28;20043;-53
2022/06/18 13:46:25;;;;;;;35.58;9.07;;;;;;;;;;5092191;28;20031;-49
2022/06/18 13:48:51;;;;;;;29.00;8.32;;;;;;;;;;5057105;28;20025;-59
2022/06/18 13:51:31;;;;;;;27.27;8.55;;;;;;;;;;5055409;28;20383;-57
2022/06/18 13:54:08;;;;;;;31.48;9.10;;;;;;;;;;5058141;28;20111;-53
2022/06/18 13:56:34;;;;;;;28.27;9.07;;;;;;;;;;5061155;28;20021;-51
2022/06/18 13:59:01;;;;;;;25.38;8.23;;;;;;;;;;5059299;28;20411;-57
2022/06/18 14:01:29;;;;;;;27.42;7.65;;;;;;;;;;5068315;28;20032;-54
2022/06/18 14:03:58;;;;;;;23.17;7.53;;;;;;;;;;5102561;28;20086;-56
2022/06/18 14:06:25;;;;;;;23.23;6.78;;;;;;;;;;5089947;28;20066;-57
2022/06/18 14:08:53;;;;;;;26.08;7.70;;;;;;;;;;5069276;28;20045;-50
2022/06/18 14:11:28;;;;;;;24.15;6.70;;;;;;;;;;5072238;28;20024;-49
2022/06/18 14:13:54;;;;;;;18.50;6.45;;;;;;;;;;5073223;28;20053;-50
2022/06/18 14:16:29;;;;;;;20.48;6.97;;;;;;;;;;5070982;28;20099;-55
2022/06/18 14:19:06;;;;;;;22.08;6.63;;;;;;;;;;5070093;28;20066;-47
2022/06/18 14:21:34;;;;;;;19.73;7.05;;;;;;;;;;5070398;28;20021;-51
2022/06/18 14:24:01;;;;;;;19.75;7.43;;;;;;;;;;5068814;28;20032;-49
2022/06/18 14:26:37;;;;;;;22.85;6.82;;;;;;;;;;5078568;28;20016;-50
2022/06/18 14:29:03;;;;;;;21.83;6.18;;;;;;;;;;5061749;28;20035;-57
2022/06/18 14:31:35;;;;;;;17.60;6.00;;;;;;;;;;5079231;28;20024;-51
2022/06/18 14:34:10;;;;;;;24.30;6.60;;;;;;;;;;5076106;28;20068;-57
2022/06/18 14:36:38;;;;;;;23.00;6.55;;;;;;;;;;5085442;28;20066;-56
2022/06/18 14:39:13;;;;;;;22.77;6.18;;;;;;;;;;5052669;28;20035;-57
2022/06/18 14:41:39;;;;;;;16.90;6.07;;;;;;;;;;5051404;28;20565;-58
2022/06/18 14:44:05;;;;;;;16.55;6.03;;;;;;;;;;5051138;28;20072;-57
2022/06/18 14:46:37;;;;;;;16.13;5.85;;;;;;;;;;5075454;28;20062;-56
2022/06/18 14:49:16;;;;;;;20.02;5.78;;;;;;;;;;5082289;28;20032;-54
2022/06/18 14:51:42;;;;;;;16.45;5.65;;;;;;;;;;5086621;28;20085;-57
2022/06/18 14:54:21;;;;;;;18.42;6.13;;;;;;;;;;5055576;28;20029;-68
2022/06/18 14:56:47;;;;;;;17.25;6.20;;;;;;;;;;5091458;28;20059;-57
2022/06/18 14:59:13;;;;;;;12.23;5.25;;;;;;;;;;5090505;28;20485;-57
2022/06/18 15:01:57;;;;;;;20.15;5.72;;;;;;;;;;5087690;28;20415;-52
2022/06/18 15:04:28;;;;;;;15.80;6.50;;;;;;;;;;5074264;28;20088;-55
2022/06/18 15:06:55;;;;;;;15.95;5.57;;;;;;;;;;5065177;28;20033;-51
2022/06/18 15:09:30;;;;;;;16.42;4.95;;;;;;;;;;5077964;28;20040;-47
2022/06/18 15:11:57;;;;;;;14.68;4.45;;;;;;;;;;5091362;28;20028;-53